Time;durP1;ratioP1;P1;durP2;ratioP2;P2;SDS_P1;SDS_P2;PMS_P1;PMS_P2;Temp;Humidity;BMP_temperature;BMP_pressure;BME280_temperature;BME280_humidity;BME280_pressure;Samples;Min_cycle;Max_cycle;Signal;HPM_P1;HPM_P2
2022/03/16 00:02:24;;;;;;;23.10;11.33;;;4.90;99.90;;;;;;5014609;28;20670;-72
2022/03/16 00:04:55;;;;;;;21.37;11.63;;;4.80;99.90;;;;;;5018258;28;20565;-72
2022/03/16 00:07:23;;;;;;;22.23;11.63;;;4.70;99.90;;;;;;5018544;28;20223;-71
2022/03/16 00:09:50;;;;;;;24.70;12.07;;;4.70;99.90;;;;;;5024275;28;20217;-74
2022/03/16 00:12:17;;;;;;;23.73;11.13;;;4.80;99.90;;;;;;5024548;28;20217;-75
2022/03/16 00:14:44;;;;;;;22.00;11.70;;;4.80;99.90;;;;;;5020087;28;20201;-73
2022/03/16 00:17:11;;;;;;;21.90;11.27;;;4.80;99.90;;;;;;5025336;28;20566;-73
2022/03/16 00:19:42;;;;;;;21.70;11.33;;;4.80;99.90;;;;;;5021250;28;20602;-73
2022/03/16 00:22:09;;;;;;;21.23;10.77;;;4.70;99.90;;;;;;5020300;28;20687;-72
2022/03/16 00:24:36;;;;;;;20.93;11.37;;;4.70;99.90;;;;;;5016333;28;20650;-72
2022/03/16 00:27:02;;;;;;;21.97;10.63;;;4.60;99.90;;;;;;5027363;28;20205;-72
2022/03/16 00:29:30;;;;;;;18.60;9.07;;;4.40;99.90;;;;;;5010889;28;20208;-75
2022/03/16 00:32:02;;;;;;;18.63;9.60;;;4.30;99.90;;;;;;5021903;28;20306;-72
2022/03/16 00:34:29;;;;;;;16.77;9.57;;;4.10;99.90;;;;;;5021398;28;20192;-71
2022/03/16 00:36:58;;;;;;;17.77;9.97;;;4.10;99.90;;;;;;5025068;28;20198;-74
2022/03/16 00:39:24;;;;;;;19.47;9.63;;;4.20;99.90;;;;;;5029412;28;20213;-72
2022/03/16 00:41:51;;;;;;;18.53;9.67;;;4.20;99.90;;;;;;5028426;28;20196;-71
2022/03/16 00:44:18;;;;;;;18.87;9.30;;;4.30;99.90;;;;;;5026266;28;20546;-75
2022/03/16 00:46:44;;;;;;;18.10;9.13;;;4.10;99.90;;;;;;5014844;28;20259;-77
2022/03/16 00:49:11;;;;;;;16.73;9.07;;;4.00;99.90;;;;;;5020070;28;20227;-72
2022/03/16 00:51:38;;;;;;;18.27;9.73;;;3.90;99.90;;;;;;5018477;28;20208;-74
2022/03/16 00:54:05;;;;;;;19.80;9.00;;;3.90;99.90;;;;;;5017620;28;20221;-75
2022/03/16 00:56:32;;;;;;;18.77;10.17;;;4.20;99.90;;;;;;5018857;28;20208;-74
2022/03/16 00:58:58;;;;;;;17.70;9.03;;;4.20;99.90;;;;;;5024027;28;20207;-74
2022/03/16 01:01:25;;;;;;;17.97;9.07;;;4.00;99.90;;;;;;5019895;28;20667;-72
2022/03/16 01:03:52;;;;;;;16.53;7.90;;;3.90;99.90;;;;;;5023417;28;20197;-75
2022/03/16 01:06:20;;;;;;;18.07;8.37;;;3.70;99.90;;;;;;5024632;28;20192;-72
2022/03/16 01:08:47;;;;;;;14.13;7.83;;;3.60;99.90;;;;;;5032464;28;20215;-73
2022/03/16 01:11:14;;;;;;;17.77;9.23;;;3.50;99.90;;;;;;5026906;28;20239;-75
2022/03/16 01:13:42;;;;;;;16.83;8.80;;;3.70;99.90;;;;;;5025573;28;20218;-72
2022/03/16 01:16:09;;;;;;;18.13;9.80;;;3.90;99.90;;;;;;5024784;28;20203;-72
2022/03/16 01:18:36;;;;;;;17.40;9.20;;;3.90;99.90;;;;;;5021737;28;20289;-73
2022/03/16 01:21:07;;;;;;;17.07;9.13;;;3.80;99.90;;;;;;5023210;28;20245;-72
2022/03/16 01:23:35;;;;;;;15.80;8.77;;;3.60;99.90;;;;;;5027500;28;20195;-72
2022/03/16 01:26:05;;;;;;;16.93;9.07;;;3.50;99.90;;;;;;5022835;28;20215;-72
2022/03/16 01:28:32;;;;;;;21.53;10.63;;;3.40;99.90;;;;;;5030750;28;20226;-72
2022/03/16 01:31:01;;;;;;;20.60;9.60;;;3.30;99.90;;;;;;5019723;28;20262;-75
2022/03/16 01:33:29;;;;;;;20.97;10.37;;;3.40;99.90;;;;;;5020698;28;20211;-71
2022/03/16 01:35:55;;;;;;;17.37;9.20;;;3.50;99.90;;;;;;5022405;28;20201;-73
2022/03/16 01:38:23;;;;;;;17.17;9.33;;;3.50;99.90;;;;;;5025558;28;20765;-72
2022/03/16 01:40:49;;;;;;;19.40;9.87;;;3.40;99.90;;;;;;5021905;28;20192;-73
2022/03/16 01:43:16;;;;;;;21.30;9.67;;;3.30;99.90;;;;;;5023176;28;20206;-72
2022/03/16 01:45:48;;;;;;;19.47;9.73;;;3.20;99.90;;;;;;5031879;28;20204;-72
2022/03/16 01:48:16;;;;;;;18.20;9.57;;;3.20;99.90;;;;;;5019305;28;20224;-72
2022/03/16 01:50:42;;;;;;;17.93;9.40;;;3.10;99.90;;;;;;5020883;28;20219;-73
2022/03/16 01:53:11;;;;;;;19.03;9.53;;;3.10;99.90;;;;;;5027986;28;20207;-72
2022/03/16 01:55:39;;;;;;;16.53;8.83;;;3.00;99.90;;;;;;5023805;28;20563;-74
2022/03/16 01:58:07;;;;;;;15.83;8.57;;;2.90;99.90;;;;;;5020247;28;20208;-72
2022/03/16 02:00:34;;;;;;;15.20;8.80;;;2.90;99.90;;;;;;5025789;28;20203;-74
2022/03/16 02:03:01;;;;;;;14.83;8.00;;;2.80;99.90;;;;;;5023683;28;20199;-73
2022/03/16 02:05:29;;;;;;;13.70;7.97;;;2.80;99.90;;;;;;5022582;28;20192;-73
2022/03/16 02:07:56;;;;;;;17.60;9.27;;;2.80;99.90;;;;;;5018440;28;20702;-72
2022/03/16 02:10:23;;;;;;;15.13;7.83;;;2.80;99.90;;;;;;5011497;28;20199;-71
2022/03/16 02:12:51;;;;;;;17.80;9.00;;;2.80;99.90;;;;;;5010371;28;20216;-73
2022/03/16 02:15:19;;;;;;;18.70;8.63;;;2.70;99.90;;;;;;5011155;28;20206;-72
2022/03/16 02:17:46;;;;;;;13.97;7.67;;;2.80;99.90;;;;;;5017238;28;20226;-75
2022/03/16 02:20:13;;;;;;;21.03;8.53;;;2.70;99.90;;;;;;5014466;28;20198;-73
2022/03/16 02:23:00;;;;;;;26.10;9.13;;;2.60;99.90;;;;;;5018521;28;20194;-74
2022/03/16 02:25:28;;;;;;;17.97;8.97;;;2.60;99.90;;;;;;5018443;28;20207;-73
2022/03/16 02:27:55;;;;;;;13.40;7.80;;;2.60;99.90;;;;;;5029600;28;20238;-72
2022/03/16 02:30:24;;;;;;;17.73;8.93;;;2.60;99.90;;;;;;5027664;28;20209;-71
2022/03/16 02:32:50;;;;;;;16.83;8.90;;;2.80;99.90;;;;;;5016631;28;20219;-72
2022/03/16 02:35:18;;;;;;;18.13;9.37;;;2.90;99.90;;;;;;5020124;28;20543;-72
2022/03/16 02:37:44;;;;;;;16.97;9.03;;;2.90;99.90;;;;;;5015885;28;20212;-72
2022/03/16 02:40:17;;;;;;;17.33;9.60;;;3.10;99.90;;;;;;5027480;28;20240;-75
2022/03/16 02:42:44;;;;;;;16.50;8.93;;;3.10;99.90;;;;;;5030956;28;20244;-72
2022/03/16 02:45:10;;;;;;;19.10;9.50;;;3.10;99.90;;;;;;5019259;28;20579;-72
2022/03/16 02:47:39;;;;;;;18.33;9.87;;;3.00;99.90;;;;;;5023543;28;20853;-70
2022/03/16 02:50:06;;;;;;;18.07;9.80;;;3.10;99.90;;;;;;5024368;28;20221;-73
2022/03/16 02:52:33;;;;;;;21.50;10.87;;;3.20;99.90;;;;;;5024181;28;20560;-72
2022/03/16 02:55:00;;;;;;;23.77;11.50;;;3.30;99.90;;;;;;5014348;28;20656;-72
2022/03/16 02:57:27;;;;;;;26.30;11.97;;;3.50;99.90;;;;;;5024009;28;20218;-74
2022/03/16 02:59:54;;;;;;;28.33;13.17;;;3.60;99.90;;;;;;5022378;28;20200;-73
2022/03/16 03:02:21;;;;;;;28.97;12.20;;;3.80;99.90;;;;;;5022666;28;20192;-73
2022/03/16 03:04:47;;;;;;;24.37;11.03;;;3.90;99.90;;;;;;5021472;28;20195;-75
2022/03/16 03:07:14;;;;;;;25.63;12.20;;;4.00;99.90;;;;;;5018925;28;20220;-73
2022/03/16 03:09:41;;;;;;;22.93;11.40;;;4.10;99.90;;;;;;5015023;28;20754;-72
2022/03/16 03:12:08;;;;;;;22.07;11.13;;;4.20;99.90;;;;;;5023272;28;20250;-74
2022/03/16 03:14:34;;;;;;;24.00;12.40;;;4.20;99.90;;;;;;5027058;28;20610;-73
2022/03/16 03:17:02;;;;;;;22.00;11.53;;;4.20;99.90;;;;;;5023526;28;20194;-73
2022/03/16 03:19:29;;;;;;;22.90;11.03;;;4.30;99.90;;;;;;5026869;28;20228;-75
2022/03/16 03:21:56;;;;;;;28.67;14.90;;;4.30;99.90;;;;;;5024539;28;20196;-73
2022/03/16 03:24:22;;;;;;;52.53;17.10;;;4.50;99.90;;;;;;5017414;28;20202;-73
2022/03/16 03:26:49;;;;;;;46.03;19.67;;;4.50;99.90;;;;;;5014618;28;20208;-72
2022/03/16 03:29:16;;;;;;;48.07;21.03;;;4.60;99.90;;;;;;5021837;28;20215;-72
2022/03/16 03:31:44;;;;;;;45.20;19.70;;;4.60;99.90;;;;;;5015678;28;20207;-74
2022/03/16 03:34:10;;;;;;;60.13;22.97;;;4.70;99.90;;;;;;5020433;28;20221;-76
2022/03/16 03:36:37;;;;;;;74.50;26.73;;;4.80;99.90;;;;;;5016895;28;20201;-73
2022/03/16 03:39:04;;;;;;;71.40;26.43;;;4.80;99.90;;;;;;5018286;28;20221;-71
2022/03/16 03:41:31;;;;;;;75.37;27.77;;;4.80;99.90;;;;;;5023523;28;20601;-75
2022/03/16 03:43:57;;;;;;;80.50;28.23;;;4.90;99.90;;;;;;5022598;28;20205;-73
2022/03/16 03:46:24;;;;;;;82.83;26.07;;;4.90;99.90;;;;;;5017226;28;20276;-73
2022/03/16 03:48:51;;;;;;;81.80;27.17;;;4.90;99.90;;;;;;5021046;28;20265;-76
2022/03/16 03:51:17;;;;;;;66.50;26.07;;;4.90;99.90;;;;;;5030108;28;20210;-73
2022/03/16 03:53:44;;;;;;;74.90;22.93;;;5.00;99.90;;;;;;5024159;28;20594;-73
2022/03/16 03:56:11;;;;;;;60.30;22.10;;;4.90;99.90;;;;;;5019853;28;20198;-72
2022/03/16 03:58:38;;;;;;;60.63;21.13;;;5.00;99.90;;;;;;5022852;28;20264;-73
2022/03/16 04:01:06;;;;;;;69.00;22.40;;;5.00;99.90;;;;;;5015075;28;20577;-73
2022/03/16 04:03:33;;;;;;;47.50;19.47;;;5.00;99.90;;;;;;5016850;28;20202;-73
2022/03/16 04:06:00;;;;;;;68.07;21.13;;;5.00;99.90;;;;;;5020556;28;20251;-76
2022/03/16 04:08:27;;;;;;;92.33;23.10;;;5.00;99.90;;;;;;5028167;28;20213;-73
2022/03/16 04:10:54;;;;;;;58.37;22.70;;;4.90;99.90;;;;;;5031122;28;20687;-74
2022/03/16 04:13:20;;;;;;;58.83;22.07;;;5.00;99.90;;;;;;5030795;28;20243;-73
2022/03/16 04:15:47;;;;;;;58.07;22.20;;;5.00;99.90;;;;;;5025497;28;20200;-74
2022/03/16 04:18:14;;;;;;;71.03;21.63;;;5.10;99.90;;;;;;5020329;28;20218;-75
2022/03/16 04:20:40;;;;;;;76.83;21.87;;;5.10;99.90;;;;;;5020011;28;20206;-72
2022/03/16 04:23:07;;;;;;;59.87;20.33;;;5.00;99.90;;;;;;5028424;28;20204;-73
2022/03/16 04:25:34;;;;;;;66.30;21.37;;;4.90;99.90;;;;;;5021831;28;20208;-76
2022/03/16 04:28:00;;;;;;;64.17;22.20;;;5.00;99.90;;;;;;5024473;28;20270;-73
2022/03/16 04:30:27;;;;;;;55.57;22.80;;;4.90;99.90;;;;;;5020768;28;20200;-73
2022/03/16 04:32:54;;;;;;;84.40;23.63;;;5.00;99.90;;;;;;5018408;28;20273;-72
2022/03/16 04:35:20;;;;;;;83.47;23.60;;;4.90;99.90;;;;;;5020972;28;20197;-75
2022/03/16 04:37:48;;;;;;;79.50;23.00;;;5.00;99.90;;;;;;5024411;28;20697;-73
2022/03/16 04:40:14;;;;;;;50.80;21.37;;;5.00;99.90;;;;;;5030770;28;20639;-75
2022/03/16 04:42:41;;;;;;;64.63;22.53;;;5.00;99.90;;;;;;5020438;28;20200;-73
2022/03/16 04:45:09;;;;;;;79.53;23.63;;;5.00;99.90;;;;;;5025171;28;20468;-72
2022/03/16 04:47:35;;;;;;;58.63;22.10;;;5.00;99.90;;;;;;5022302;28;20220;-72
2022/03/16 04:50:03;;;;;;;53.27;22.70;;;5.10;99.90;;;;;;5026824;28;20203;-73
2022/03/16 04:52:29;;;;;;;53.93;21.67;;;5.10;99.90;;;;;;5018187;28;20198;-76
2022/03/16 04:54:56;;;;;;;63.10;20.70;;;5.10;99.90;;;;;;5029273;28;20629;-73
2022/03/16 04:57:23;;;;;;;80.47;22.00;;;5.10;99.90;;;;;;5023995;28;20224;-74
2022/03/16 04:59:50;;;;;;;73.67;22.83;;;5.00;99.90;;;;;;5019085;28;20701;-72
2022/03/16 05:02:16;;;;;;;75.83;21.10;;;5.00;99.90;;;;;;5028052;28;20249;-73
2022/03/16 05:04:43;;;;;;;57.40;21.67;;;5.00;99.90;;;;;;5024353;28;20193;-74
2022/03/16 05:07:10;;;;;;;73.13;23.17;;;5.00;99.90;;;;;;5020716;28;20203;-73
2022/03/16 05:09:36;;;;;;;60.53;22.53;;;5.00;99.90;;;;;;5021041;28;20457;-71
2022/03/16 05:12:03;;;;;;;87.53;23.17;;;5.00;99.90;;;;;;5020695;28;20264;-75
2022/03/16 05:14:30;;;;;;;57.00;22.60;;;5.00;99.90;;;;;;5023526;28;20224;-74
2022/03/16 05:16:57;;;;;;;65.83;23.97;;;5.00;99.90;;;;;;5027438;28;20201;-76
2022/03/16 05:19:26;;;;;;;62.73;22.40;;;4.90;99.90;;;;;;5022739;28;20669;-73
2022/03/16 05:21:52;;;;;;;70.73;23.37;;;4.80;99.90;;;;;;5024755;28;20206;-73
2022/03/16 05:24:22;;;;;;;63.27;21.97;;;4.90;99.90;;;;;;5023898;28;20283;-73
2022/03/16 05:26:49;;;;;;;64.47;22.23;;;4.90;99.90;;;;;;5026474;28;20198;-75
2022/03/16 05:29:16;;;;;;;50.17;21.57;;;4.80;99.90;;;;;;5014557;28;20306;-73
2022/03/16 05:31:43;;;;;;;54.70;20.03;;;4.80;99.90;;;;;;5024348;28;20205;-73
2022/03/16 05:34:10;;;;;;;50.17;20.27;;;4.80;99.90;;;;;;5028420;28;20459;-77
2022/03/16 05:36:37;;;;;;;50.03;20.50;;;4.70;99.90;;;;;;5027766;28;20192;-74
2022/03/16 05:39:04;;;;;;;47.33;19.70;;;4.60;99.90;;;;;;5032371;28;20218;-73
2022/03/16 05:41:31;;;;;;;47.27;19.73;;;4.70;99.90;;;;;;5030245;28;20223;-73
2022/03/16 05:43:57;;;;;;;54.03;19.67;;;4.70;99.90;;;;;;5025606;28;20250;-73
2022/03/16 05:46:24;;;;;;;53.90;21.10;;;4.70;99.90;;;;;;5027946;28;20201;-76
2022/03/16 05:48:51;;;;;;;49.50;19.67;;;4.70;99.90;;;;;;5020107;28;20227;-73
2022/03/16 05:51:17;;;;;;;62.90;20.70;;;4.70;99.90;;;;;;5019709;28;20200;-74
2022/03/16 05:53:44;;;;;;;56.33;20.23;;;4.70;99.90;;;;;;5025157;28;20298;-73
2022/03/16 05:56:11;;;;;;;59.17;20.13;;;4.60;99.90;;;;;;5022400;28;20190;-74
2022/03/16 05:58:37;;;;;;;51.93;19.17;;;4.60;99.90;;;;;;5031404;28;20209;-73
2022/03/16 06:01:04;;;;;;;46.70;19.33;;;4.70;99.90;;;;;;5024168;28;20281;-73
2022/03/16 06:03:31;;;;;;;61.97;21.40;;;4.80;99.90;;;;;;5018299;28;20228;-73
2022/03/16 06:05:58;;;;;;;44.50;18.90;;;4.80;99.90;;;;;;5025768;28;20201;-74
2022/03/16 06:08:24;;;;;;;59.70;20.37;;;4.90;99.90;;;;;;5026036;28;20235;-74
2022/03/16 06:10:51;;;;;;;45.60;20.70;;;5.00;99.90;;;;;;5021659;28;20687;-75
2022/03/16 06:13:17;;;;;;;41.53;18.70;;;5.00;99.90;;;;;;5022913;28;20285;-73
2022/03/16 06:15:44;;;;;;;51.97;20.77;;;5.00;99.90;;;;;;5019640;28;20671;-74
2022/03/16 06:18:12;;;;;;;46.20;20.10;;;5.00;99.90;;;;;;5022080;28;20697;-74
2022/03/16 06:20:39;;;;;;;44.10;20.27;;;5.00;99.90;;;;;;5024151;28;20212;-75
2022/03/16 06:23:08;;;;;;;42.73;19.30;;;5.00;99.90;;;;;;5023414;28;20232;-74
2022/03/16 06:25:39;;;;;;;49.47;19.47;;;5.00;99.90;;;;;;5018426;28;20680;-72
2022/03/16 06:28:05;;;;;;;57.63;20.40;;;5.10;99.90;;;;;;5021746;28;20220;-75
2022/03/16 06:30:32;;;;;;;52.53;19.87;;;5.10;99.90;;;;;;5021424;28;20193;-74
2022/03/16 06:32:59;;;;;;;51.73;20.73;;;5.20;99.90;;;;;;5018778;28;20623;-74
2022/03/16 06:35:26;;;;;;;46.90;20.03;;;5.10;99.90;;;;;;5015951;28;20223;-73
2022/03/16 06:37:52;;;;;;;46.87;19.80;;;5.20;99.90;;;;;;5017405;28;20236;-74
2022/03/16 06:40:19;;;;;;;42.53;18.67;;;5.30;99.90;;;;;;5017471;28;20720;-73
2022/03/16 06:42:52;;;;;;;47.17;25.17;;;5.20;99.90;;;;;;5019532;28;20457;-70
2022/03/16 06:45:20;;;;;;;43.47;19.43;;;5.20;99.90;;;;;;5025927;28;20218;-72
2022/03/16 06:47:47;;;;;;;37.27;18.03;;;5.20;99.90;;;;;;5019495;28;20325;-71
2022/03/16 06:50:14;;;;;;;38.80;17.93;;;5.30;99.90;;;;;;5026560;28;20221;-71
2022/03/16 06:52:41;;;;;;;38.40;16.97;;;5.30;99.90;;;;;;5025018;28;20590;-73
2022/03/16 06:55:09;;;;;;;34.30;16.33;;;5.20;99.90;;;;;;5040310;28;20217;-72
2022/03/16 06:57:36;;;;;;;38.77;17.33;;;5.30;99.90;;;;;;5023290;28;20209;-74
2022/03/16 07:00:05;;;;;;;36.87;17.27;;;5.20;99.90;;;;;;5018607;28;20236;-74
2022/03/16 07:02:54;;;;;;;38.73;17.57;;;5.40;99.90;;;;;;5011467;28;20201;-73
2022/03/16 07:05:28;;;;;;;39.63;18.23;;;5.40;99.90;;;;;;5015071;28;21908;-72
2022/03/16 07:08:00;;;;;;;42.17;17.23;;;5.40;99.90;;;;;;5018613;28;20219;-72
2022/03/16 07:10:28;;;;;;;40.43;16.90;;;5.40;99.90;;;;;;5019106;28;20199;-74
2022/03/16 07:12:54;;;;;;;40.57;17.13;;;5.50;99.90;;;;;;5023239;28;20713;-72
2022/03/16 07:15:22;;;;;;;39.13;17.57;;;5.60;99.90;;;;;;5027178;28;20217;-73
2022/03/16 07:17:49;;;;;;;36.53;15.13;;;5.70;99.90;;;;;;5021688;28;20597;-73
2022/03/16 07:20:16;;;;;;;37.23;15.53;;;5.80;99.90;;;;;;5018752;28;20698;-73
2022/03/16 07:22:43;;;;;;;36.53;16.17;;;5.80;99.90;;;;;;5020654;28;20205;-75
2022/03/16 07:25:27;;;;;;;32.87;15.27;;;5.90;99.90;;;;;;5014754;28;20200;-72
2022/03/16 07:27:54;;;;;;;31.40;14.73;;;6.00;99.90;;;;;;5016340;28;20231;-73
2022/03/16 07:30:21;;;;;;;33.97;15.20;;;6.00;99.90;;;;;;5018865;28;20202;-72
2022/03/16 07:32:47;;;;;;;35.83;15.60;;;6.10;99.90;;;;;;5018273;28;20200;-72
2022/03/16 07:35:14;;;;;;;32.00;14.90;;;6.20;99.90;;;;;;5020693;28;20213;-74
2022/03/16 07:37:42;;;;;;;37.67;15.77;;;6.30;99.90;;;;;;5020009;28;20219;-73
2022/03/16 07:40:10;;;;;;;34.43;15.50;;;6.40;99.90;;;;;;5019970;28;20192;-73
2022/03/16 07:42:37;;;;;;;50.37;16.23;;;6.50;99.90;;;;;;5017743;28;20235;-73
2022/03/16 07:45:04;;;;;;;36.73;16.30;;;6.60;99.90;;;;;;5022740;28;20196;-73
2022/03/16 07:47:31;;;;;;;39.13;17.57;;;6.70;99.90;;;;;;5020884;28;20219;-74
2022/03/16 07:50:06;;;;;;;42.23;18.37;;;6.90;99.90;;;;;;5018322;28;20198;-74
2022/03/16 07:52:33;;;;;;;37.97;16.93;;;7.10;99.90;;;;;;5023594;28;20195;-71
2022/03/16 07:54:59;;;;;;;40.03;18.50;;;7.20;99.90;;;;;;5018653;28;20589;-74
2022/03/16 07:57:26;;;;;;;28.73;15.53;;;7.30;99.90;;;;;;5020296;28;20219;-73
2022/03/16 07:59:54;;;;;;;30.23;15.03;;;7.40;99.90;;;;;;5019342;28;20207;-71
2022/03/16 08:02:21;;;;;;;26.67;13.23;;;7.60;99.90;;;;;;5016967;28;20575;-73
2022/03/16 08:04:48;;;;;;;28.60;14.03;;;7.60;99.90;;;;;;5020122;28;20203;-73
2022/03/16 08:07:15;;;;;;;32.57;15.03;;;7.50;99.90;;;;;;5024159;28;20300;-68
2022/03/16 08:09:42;;;;;;;29.27;14.33;;;7.40;99.90;;;;;;5026583;28;20269;-71
2022/03/16 08:12:08;;;;;;;27.40;14.00;;;7.40;99.90;;;;;;5019997;28;20212;-71
2022/03/16 08:14:35;;;;;;;26.87;13.37;;;7.30;99.90;;;;;;5024114;28;20227;-71
2022/03/16 08:17:02;;;;;;;30.60;14.63;;;7.30;99.90;;;;;;5030931;28;20575;-71
2022/03/16 08:19:29;;;;;;;29.63;13.73;;;7.30;99.90;;;;;;5027232;28;21174;-73
2022/03/16 08:21:55;;;;;;;28.13;14.17;;;7.20;99.90;;;;;;5021881;28;20264;-71
2022/03/16 08:24:22;;;;;;;30.67;13.73;;;7.30;99.90;;;;;;5027081;28;20207;-73
2022/03/16 08:27:09;;;;;;;27.80;14.00;;;7.50;99.90;;;;;;5024917;28;20282;-70
2022/03/16 08:29:35;;;;;;;28.90;13.80;;;7.70;99.90;;;;;;5020409;28;20204;-74
2022/03/16 08:32:03;;;;;;;25.17;14.00;;;7.90;99.90;;;;;;5025939;28;20666;-72
2022/03/16 08:34:30;;;;;;;28.50;15.10;;;7.90;99.90;;;;;;5021166;28;20565;-74
2022/03/16 08:37:00;;;;;;;25.23;13.17;;;7.90;99.90;;;;;;5022218;28;20197;-75
2022/03/16 08:39:27;;;;;;;26.40;13.53;;;7.90;99.90;;;;;;5018026;28;20588;-73
2022/03/16 08:41:54;;;;;;;24.83;12.93;;;8.00;99.90;;;;;;5024873;28;20260;-73
2022/03/16 08:44:23;;;;;;;28.43;14.13;;;8.00;99.90;;;;;;5012545;28;20201;-72
2022/03/16 08:46:51;;;;;;;25.50;13.47;;;8.10;99.90;;;;;;5010688;28;20196;-73
2022/03/16 08:49:18;;;;;;;26.10;13.43;;;8.30;99.90;;;;;;5011580;28;20252;-72
2022/03/16 08:51:45;;;;;;;25.13;13.07;;;8.40;99.90;;;;;;5022969;28;20205;-72
2022/03/16 08:54:11;;;;;;;24.70;13.00;;;8.30;99.90;;;;;;5022276;28;20222;-70
2022/03/16 08:56:38;;;;;;;28.57;14.53;;;8.10;99.90;;;;;;5019180;28;20191;-73
2022/03/16 08:59:06;;;;;;;26.50;14.53;;;7.90;99.90;;;;;;5022855;28;20214;-73
2022/03/16 09:01:32;;;;;;;27.70;13.73;;;7.90;99.90;;;;;;5022538;28;20205;-70
2022/03/16 09:04:01;;;;;;;28.27;14.17;;;8.00;99.90;;;;;;5022496;28;20194;-72
2022/03/16 09:06:29;;;;;;;30.17;14.57;;;8.00;99.90;;;;;;5022695;28;20198;-72
2022/03/16 09:08:55;;;;;;;26.17;13.60;;;8.10;99.90;;;;;;5025935;28;20217;-72
2022/03/16 09:11:22;;;;;;;30.47;14.73;;;8.30;99.90;;;;;;5024007;28;20198;-72
2022/03/16 09:13:49;;;;;;;25.63;14.77;;;8.50;99.90;;;;;;5024566;28;20194;-71
2022/03/16 09:16:16;;;;;;;29.77;13.33;;;8.70;99.90;;;;;;5021946;28;20670;-74
2022/03/16 09:18:43;;;;;;;23.63;12.87;;;8.90;99.90;;;;;;5023337;28;20214;-74
2022/03/16 09:21:11;;;;;;;25.90;14.13;;;8.90;99.90;;;;;;5023843;28;20250;-73
2022/03/16 09:23:37;;;;;;;24.90;13.87;;;8.90;99.90;;;;;;5020928;28;20610;-74
2022/03/16 09:26:06;;;;;;;23.60;13.93;;;8.90;99.90;;;;;;5018004;28;20203;-73
2022/03/16 09:28:33;;;;;;;25.33;14.47;;;9.10;99.90;;;;;;5022545;28;20655;-73
2022/03/16 09:31:00;;;;;;;26.20;13.97;;;9.20;99.90;;;;;;5020272;28;20207;-73
2022/03/16 09:33:30;;;;;;;25.63;13.50;;;9.10;99.90;;;;;;5027900;28;20207;-73
2022/03/16 09:35:57;;;;;;;26.53;13.37;;;9.30;99.90;;;;;;5022781;28;20599;-72
2022/03/16 09:38:24;;;;;;;23.87;13.77;;;9.50;99.90;;;;;;5027682;28;20624;-72
2022/03/16 09:40:53;;;;;;;24.47;13.97;;;9.60;99.90;;;;;;5021264;28;20323;-73
2022/03/16 09:43:23;;;;;;;23.90;12.87;;;9.80;99.90;;;;;;5024152;28;20196;-72
2022/03/16 09:45:54;;;;;;;25.57;14.23;;;9.90;99.90;;;;;;5019940;28;20212;-70
2022/03/16 09:48:23;;;;;;;26.87;14.40;;;9.80;99.90;;;;;;5027872;28;20218;-73
2022/03/16 09:50:53;;;;;;;24.23;13.43;;;9.90;99.90;;;;;;5022224;28;20227;-72
2022/03/16 09:53:26;;;;;;;24.60;14.00;;;10.10;99.90;;;;;;5024866;28;20203;-72
2022/03/16 09:55:57;;;;;;;25.17;13.70;;;10.20;99.90;;;;;;5011388;28;20213;-72
2022/03/16 09:58:24;;;;;;;27.00;14.40;;;10.40;99.90;;;;;;5022958;28;20745;-72
2022/03/16 10:00:54;;;;;;;23.83;13.30;;;10.60;99.90;;;;;;5027359;28;20575;-71
2022/03/16 10:03:23;;;;;;;24.73;13.93;;;10.90;99.90;;;;;;5019368;28;20244;-72
2022/03/16 10:05:50;;;;;;;23.80;13.80;;;11.10;99.90;;;;;;5020120;28;20303;-73
2022/03/16 10:08:29;;;;;;;29.70;14.47;;;11.40;99.90;;;;;;5016610;28;20288;-72
2022/03/16 10:14:07;;;;;;;23.20;13.37;;;11.70;99.90;;;;;;5028350;28;20198;-72
2022/03/16 10:19:21;;;;;;;21.40;12.50;;;11.90;99.90;;;;;;5021531;28;20246;-72
2022/03/16 10:22:02;;;;;;;28.50;14.37;;;11.90;99.90;;;;;;5022926;28;20254;-72
2022/03/16 10:24:29;;;;;;;21.03;12.60;;;11.90;99.90;;;;;;5025276;28;20207;-73
2022/03/16 10:27:00;;;;;;;20.00;12.50;;;11.80;99.90;;;;;;5027912;28;20201;-74
2022/03/16 10:29:31;;;;;;;21.23;12.73;;;11.80;99.90;;;;;;5021548;28;20563;-74
2022/03/16 10:32:05;;;;;;;24.10;13.63;;;11.70;99.90;;;;;;5014099;28;20695;-72
2022/03/16 10:34:32;;;;;;;21.00;12.33;;;11.60;99.90;;;;;;5020581;28;20223;-71
2022/03/16 10:37:00;;;;;;;21.30;12.63;;;11.50;99.90;;;;;;5023190;28;20654;-71
2022/03/16 10:39:34;;;;;;;20.03;11.63;;;11.40;99.90;;;;;;5021802;28;20211;-73
2022/03/16 10:47:59;;;;;;;23.00;12.07;;;11.10;99.90;;;;;;5015071;28;20708;-71
2022/03/16 10:50:26;;;;;;;20.27;12.67;;;11.10;99.90;;;;;;5015246;28;20213;-71
2022/03/16 10:52:53;;;;;;;21.47;12.50;;;11.30;99.90;;;;;;5021373;28;20533;-69
2022/03/16 10:55:20;;;;;;;18.93;11.80;;;11.00;99.90;;;;;;5017746;28;20249;-71
2022/03/16 10:57:50;;;;;;;20.73;12.57;;;11.10;99.90;;;;;;5026012;28;20305;-69
2022/03/16 11:00:18;;;;;;;22.67;13.33;;;11.50;99.90;;;;;;5029569;28;20208;-68
2022/03/16 11:02:45;;;;;;;22.70;11.73;;;11.90;99.90;;;;;;5020419;28;20258;-71
2022/03/16 11:05:17;;;;;;;24.40;12.63;;;11.80;99.90;;;;;;5020893;28;20290;-71
2022/03/16 11:07:45;;;;;;;20.93;12.37;;;11.90;99.90;;;;;;5026391;28;20257;-70
2022/03/16 11:10:12;;;;;;;22.10;12.33;;;12.00;99.90;;;;;;5020733;28;20245;-71
2022/03/16 11:15:25;;;;;;;23.77;12.60;;;12.10;99.90;;;;;;5018385;28;20656;-71
2022/03/16 11:17:52;;;;;;;18.43;11.93;;;12.10;99.90;;;;;;5015917;28;20236;-71
2022/03/16 11:20:20;;;;;;;20.87;12.80;;;12.00;99.90;;;;;;5027453;28;20385;-71
2022/03/16 11:25:58;;;;;;;20.63;12.80;;;12.20;99.90;;;;;;5021354;28;20217;-72
2022/03/16 11:29:00;;;;;;;23.23;13.07;;;12.60;99.90;;;;;;5018184;28;20733;-73
2022/03/16 11:31:31;;;;;;;19.30;12.50;;;12.80;99.90;;;;;;5022394;28;20227;-75
2022/03/16 11:33:59;;;;;;;21.17;13.03;;;12.80;99.90;;;;;;5009906;28;20274;-79
2022/03/16 11:36:55;;;;;;;20.73;12.20;;;12.90;99.90;;;;;;5019973;28;20216;-80
2022/03/16 11:39:22;;;;;;;21.43;12.50;;;13.10;99.90;;;;;;5019161;28;20198;-82
2022/03/16 11:41:53;;;;;;;22.80;12.37;;;13.20;99.90;;;;;;5023849;28;20206;-81
2022/03/16 11:44:26;;;;;;;20.17;11.93;;;13.20;99.90;;;;;;5021274;28;20207;-80
2022/03/16 11:47:16;;;;;;;22.00;12.70;;;13.20;99.90;;;;;;5019422;28;20194;-83
2022/03/16 11:50:04;;;;;;;21.70;12.77;;;13.50;99.90;;;;;;5018308;28;20203;-81
2022/03/16 11:53:05;;;;;;;18.77;11.70;;;13.70;99.90;;;;;;5023729;28;20199;-84
2022/03/16 11:55:52;;;;;;;18.57;11.77;;;13.60;99.90;;;;;;5022038;28;20238;-84
2022/03/16 11:58:28;;;;;;;19.73;11.57;;;13.50;99.90;;;;;;5019291;28;20222;-81
2022/03/16 12:01:26;;;;;;;20.23;11.70;;;13.50;99.90;;;;;;5019728;28;20289;-80
2022/03/16 12:04:12;;;;;;;18.83;12.03;;;13.40;99.90;;;;;;5019798;28;20195;-80
2022/03/16 12:06:56;;;;;;;20.70;12.40;;;13.40;99.90;;;;;;5019836;28;20206;-81
2022/03/16 12:09:52;;;;;;;19.30;11.90;;;13.40;99.90;;;;;;5023215;28;20468;-80
2022/03/16 12:15:17;;;;;;;20.07;11.47;;;13.50;99.90;;;;;;5017950;28;20213;-85
2022/03/16 12:17:56;;;;;;;18.53;11.63;;;13.70;99.90;;;;;;5010899;28;20362;-82
2022/03/16 12:20:35;;;;;;;20.17;12.27;;;14.00;99.90;;;;;;5014967;28;20586;-81
2022/03/16 12:23:10;;;;;;;19.27;11.53;;;14.20;99.90;;;;;;5022564;28;20196;-77
2022/03/16 12:25:39;;;;;;;17.93;10.93;;;14.70;99.90;;;;;;5019696;28;20206;-76
2022/03/16 12:30:59;;;;;;;21.37;11.63;;;14.70;99.90;;;;;;5015558;28;20219;-72
2022/03/16 12:33:42;;;;;;;18.40;11.97;;;14.50;99.90;;;;;;5020730;28;20255;-74
2022/03/16 12:36:14;;;;;;;17.50;11.20;;;14.40;99.90;;;;;;5014579;28;20274;-75
2022/03/16 12:38:49;;;;;;;21.27;11.07;;;14.70;99.90;;;;;;5026841;28;20275;-75
2022/03/16 12:44:10;;;;;;;18.27;10.97;;;15.00;99.90;;;;;;5025409;28;20460;-72
2022/03/16 12:47:00;;;;;;;21.80;10.73;;;14.90;99.90;;;;;;5017082;28;20196;-76
2022/03/16 12:49:28;;;;;;;16.73;10.30;;;14.80;99.90;;;;;;5017581;28;20202;-77
2022/03/16 12:51:59;;;;;;;18.23;11.43;;;14.60;99.90;;;;;;5020981;28;20227;-76
2022/03/16 12:54:32;;;;;;;17.57;11.17;;;14.50;99.90;;;;;;5013638;28;20199;-75
2022/03/16 12:57:06;;;;;;;16.23;10.50;;;14.50;99.90;;;;;;5020936;28;20714;-74
2022/03/16 12:59:35;;;;;;;15.53;10.60;;;14.50;99.90;;;;;;5018961;28;20199;-74
2022/03/16 13:02:07;;;;;;;16.33;10.60;;;14.40;99.90;;;;;;5022579;28;20195;-74
2022/03/16 13:04:35;;;;;;;17.43;11.30;;;14.20;99.90;;;;;;5015418;28;20199;-76
2022/03/16 13:07:01;;;;;;;20.67;10.63;;;13.90;99.90;;;;;;5024257;28;20210;-78
2022/03/16 13:09:33;;;;;;;20.20;10.70;;;13.80;99.90;;;;;;5021357;28;20206;-80
2022/03/16 13:12:02;;;;;;;19.97;11.17;;;13.60;99.90;;;;;;5015326;28;20202;-82